createdAt,value
2017-12-24T00:16:42.015Z,53.90
2017-12-24T00:30:20.111Z,53.90
2017-12-24T00:33:00.908Z,53.90
2017-12-24T00:35:41.011Z,53.80
2017-12-24T00:54:57.506Z,53.80
2017-12-24T01:08:18.998Z,53.90
2017-12-24T01:11:02.437Z,53.80
2017-12-24T01:21:29.299Z,53.70
2017-12-24T01:35:02.247Z,53.70
2017-12-24T01:40:31.888Z,53.70
2017-12-24T01:45:54.445Z,53.70
2017-12-24T01:51:16.455Z,53.70
2017-12-24T01:56:34.472Z,53.70
2017-12-24T02:02:02.810Z,53.60
2017-12-24T02:40:33.436Z,53.60
2017-12-24T02:53:57.270Z,53.50
2017-12-24T02:56:34.580Z,53.50
2017-12-24T02:59:12.000Z,53.50
2017-12-24T03:01:45.568Z,53.50
2017-12-24T03:04:21.004Z,53.50
2017-12-24T03:07:00.822Z,53.50
2017-12-24T03:09:37.124Z,53.40
2017-12-24T03:12:14.333Z,53.40
2017-12-24T03:14:51.868Z,53.40
2017-12-24T03:17:22.785Z,53.50
2017-12-24T03:19:53.456Z,53.50
2017-12-24T03:22:31.116Z,53.50
2017-12-24T03:25:01.236Z,53.40
2017-12-24T03:27:33.891Z,53.50
2017-12-24T03:30:03.266Z,53.40
2017-12-24T03:32:33.464Z,53.50
2017-12-24T03:35:03.368Z,53.40
2017-12-24T03:37:33.487Z,53.40
2017-12-24T03:40:04.895Z,53.40
2017-12-24T03:42:34.625Z,53.40
2017-12-24T03:45:03.023Z,53.40
2017-12-24T03:47:32.114Z,53.30
2017-12-24T03:50:00.671Z,53.40
2017-12-24T03:52:30.106Z,53.30
2017-12-24T03:54:58.464Z,53.40
2017-12-24T03:57:27.220Z,53.40
2017-12-24T03:59:57.970Z,53.40
2017-12-24T04:02:27.588Z,53.40
2017-12-24T04:04:56.411Z,53.30
2017-12-24T04:07:26.079Z,53.30
2017-12-24T04:09:57.295Z,53.40
2017-12-24T04:12:26.999Z,53.40
2017-12-24T04:14:55.855Z,53.40
2017-12-24T04:17:24.130Z,53.40
2017-12-24T04:19:54.567Z,53.30
2017-12-24T04:22:24.482Z,53.30
2017-12-24T04:24:54.991Z,53.30
2017-12-24T04:27:25.130Z,53.30
2017-12-24T04:29:53.528Z,53.30
2017-12-24T04:32:22.874Z,53.30
2017-12-24T04:34:52.283Z,53.30
2017-12-24T04:37:22.191Z,53.30
2017-12-24T04:39:52.031Z,53.30
2017-12-24T04:42:23.184Z,53.20
2017-12-24T04:44:53.986Z,53.30
2017-12-24T04:47:25.431Z,53.30
2017-12-24T04:49:57.840Z,53.30
2017-12-24T04:52:29.494Z,53.30
2017-12-24T04:55:00.873Z,53.30
2017-12-24T04:57:32.895Z,53.30
2017-12-24T05:00:06.356Z,53.20
2017-12-24T05:02:35.685Z,53.20
2017-12-24T05:05:06.676Z,53.20
2017-12-24T05:07:36.712Z,53.20
2017-12-24T05:10:06.784Z,53.20
2017-12-24T05:12:37.105Z,53.20
2017-12-24T05:15:05.908Z,53.20
2017-12-24T05:17:39.532Z,53.20
2017-12-24T05:20:08.758Z,53.10
2017-12-24T05:22:38.745Z,53.10
2017-12-24T05:25:08.544Z,53.20
2017-12-24T05:27:39.140Z,53.10
2017-12-24T05:30:08.807Z,53.10
2017-12-24T05:32:37.927Z,53.70
2017-12-24T05:35:08.154Z,53.10
2017-12-24T05:37:39.059Z,53.10
2017-12-24T05:40:09.998Z,53.10
2017-12-24T05:42:39.997Z,53.10
2017-12-24T05:45:10.598Z,53.10
2017-12-24T05:47:41.069Z,53.10
2017-12-24T05:50:11.421Z,53.00
2017-12-24T05:52:41.201Z,53.00
2017-12-24T05:55:10.629Z,53.10
2017-12-24T05:57:40.372Z,53.00
2017-12-24T06:00:10.111Z,53.60
2017-12-24T06:02:40.998Z,53.00
2017-12-24T06:05:11.464Z,53.00
2017-12-24T06:07:40.798Z,53.00
2017-12-24T06:15:51.768Z,53.00
2017-12-24T06:18:28.066Z,53.00
2017-12-24T06:21:01.287Z,53.00
2017-12-24T06:23:37.183Z,53.00
2017-12-24T06:26:11.791Z,53.00
2017-12-24T06:28:55.325Z,53.00
2017-12-24T06:31:27.997Z,52.90
2017-12-24T06:34:04.255Z,52.90
2017-12-24T06:36:38.957Z,52.90
2017-12-24T06:39:10.024Z,52.90
2017-12-24T06:41:40.789Z,52.90
2017-12-24T06:44:09.884Z,52.90
2017-12-24T06:46:40.526Z,52.90
2017-12-24T06:49:10.072Z,52.90
2017-12-24T06:51:41.693Z,52.90
2017-12-24T06:54:11.659Z,52.90
2017-12-24T06:56:41.773Z,52.90
2017-12-24T06:59:13.199Z,52.90
2017-12-24T07:01:41.515Z,52.90
2017-12-24T07:04:10.163Z,52.90
2017-12-24T07:06:49.248Z,52.90
2017-12-24T07:09:25.049Z,52.90
2017-12-24T07:11:57.944Z,52.90
2017-12-24T07:14:30.015Z,52.80
2017-12-24T07:17:00.199Z,52.90
2017-12-24T07:19:29.777Z,52.80
2017-12-24T07:21:58.915Z,52.90
2017-12-24T07:24:28.336Z,52.80
2017-12-24T07:26:59.330Z,52.80
2017-12-24T07:29:29.694Z,52.80
2017-12-24T07:32:05.720Z,52.80
2017-12-24T07:34:36.247Z,52.80
2017-12-24T07:37:07.499Z,52.70
2017-12-24T07:39:44.648Z,52.80
2017-12-24T07:42:20.645Z,52.80
2017-12-24T07:44:56.195Z,52.70
2017-12-24T07:47:32.649Z,52.70
2017-12-24T07:50:08.648Z,52.70
2017-12-24T07:52:47.156Z,52.70
2017-12-24T07:55:20.860Z,52.70
2017-12-24T08:00:34.136Z,52.70
2017-12-24T08:03:04.793Z,52.70
2017-12-24T08:05:41.568Z,52.60
2017-12-24T08:08:18.478Z,52.70
2017-12-24T08:10:59.380Z,52.70
2017-12-24T08:13:36.431Z,52.70
2017-12-24T08:18:53.009Z,52.70
2017-12-24T08:21:27.404Z,52.60
2017-12-24T08:24:07.695Z,52.60
2017-12-24T08:26:40.275Z,52.60
2017-12-24T08:29:10.083Z,52.60
2017-12-24T08:31:40.630Z,52.60
2017-12-24T08:34:14.974Z,52.60
2017-12-24T08:36:45.673Z,52.60
2017-12-24T08:39:19.824Z,52.60
2017-12-24T08:41:53.688Z,52.60
2017-12-24T08:44:30.638Z,52.60
2017-12-24T08:47:03.485Z,52.60
2017-12-24T08:49:37.692Z,52.50
2017-12-24T08:52:07.808Z,52.50
2017-12-24T08:54:39.187Z,52.50
2017-12-24T08:57:09.436Z,52.40
2017-12-24T09:02:33.678Z,52.40
2017-12-24T09:05:09.596Z,52.40
2017-12-24T09:10:32.948Z,52.30
2017-12-24T09:15:59.804Z,52.90
2017-12-24T09:21:29.228Z,52.30
2017-12-24T09:29:34.770Z,52.20
2017-12-24T09:32:06.498Z,52.20
2017-12-24T09:34:41.987Z,52.20
2017-12-24T09:37:16.478Z,52.20
2017-12-24T09:39:49.479Z,52.20
2017-12-24T09:42:21.561Z,52.20
2017-12-24T09:44:53.810Z,52.20
2017-12-24T10:01:08.369Z,52.10
2017-12-24T10:03:44.312Z,52.10
2017-12-24T10:06:20.087Z,52.20
2017-12-24T10:08:51.136Z,52.10
2017-12-24T10:11:21.600Z,52.10
2017-12-24T10:13:52.886Z,52.10
2017-12-24T10:16:22.570Z,52.10
2017-12-24T10:19:01.139Z,52.10
2017-12-24T11:33:56.998Z,51.90
2017-12-24T11:36:36.336Z,51.90
2017-12-24T12:15:15.912Z,51.80
2017-12-24T12:17:46.510Z,51.80
2017-12-24T12:20:15.922Z,51.80
2017-12-24T12:22:50.183Z,51.80
2017-12-24T12:25:25.430Z,51.80
2017-12-24T12:27:54.968Z,51.80
2017-12-24T12:30:25.151Z,51.80
2017-12-24T12:32:54.667Z,51.80
2017-12-24T12:35:23.954Z,51.80
2017-12-24T12:37:54.554Z,51.90
2017-12-24T12:40:26.963Z,51.80
2017-12-24T12:42:59.400Z,51.80
2017-12-24T12:45:34.535Z,51.80
2017-12-24T12:48:12.272Z,51.80
2017-12-24T12:50:48.309Z,51.90
2017-12-24T12:53:21.636Z,51.90
2017-12-24T12:55:54.992Z,51.90
2017-12-24T12:58:28.007Z,52.10
2017-12-24T13:01:01.412Z,52.00
2017-12-24T13:03:30.838Z,52.10
2017-12-24T13:06:00.363Z,52.10
2017-12-24T13:08:31.329Z,52.10
2017-12-24T13:11:08.652Z,52.10
2017-12-24T13:13:42.330Z,52.00
2017-12-24T13:16:15.894Z,52.00
2017-12-24T13:18:48.040Z,52.00
2017-12-24T13:21:18.792Z,52.00
2017-12-24T13:23:48.836Z,52.00
2017-12-24T13:26:25.232Z,52.00
2017-12-24T13:28:57.809Z,52.00
2017-12-24T13:31:28.486Z,52.00
2017-12-24T13:34:08.700Z,52.00
2017-12-24T13:36:49.255Z,52.00
2017-12-24T13:39:23.493Z,52.10
2017-12-24T13:44:45.256Z,52.20
2017-12-24T13:52:51.423Z,52.30
2017-12-24T13:58:14.451Z,52.30
2017-12-24T14:00:44.955Z,52.30
2017-12-24T14:03:15.853Z,52.30
2017-12-24T14:05:48.795Z,52.90
2017-12-24T14:08:20.485Z,52.30
2017-12-24T14:10:53.446Z,52.30
2017-12-24T14:13:28.477Z,52.30
2017-12-24T14:21:32.477Z,52.40
2017-12-24T14:24:08.520Z,52.50
2017-12-24T14:29:26.865Z,52.50
2017-12-24T14:34:45.490Z,52.60
2017-12-24T14:37:27.987Z,52.60
2017-12-24T14:51:10.411Z,52.80
2017-12-24T14:53:50.086Z,52.90
2017-12-24T14:56:24.240Z,53.50
2017-12-24T15:48:37.128Z,53.20
2017-12-24T15:51:20.975Z,53.20
2017-12-24T15:56:48.585Z,53.30
2017-12-24T15:59:28.088Z,53.20
2017-12-24T16:02:04.928Z,53.20
2017-12-24T16:04:49.920Z,53.20
2017-12-24T16:07:26.853Z,53.20
2017-12-24T16:12:36.824Z,53.30
2017-12-24T16:15:13.412Z,53.20
2017-12-24T16:20:27.824Z,53.40
2017-12-24T16:22:59.882Z,55.00
2017-12-24T16:25:32.408Z,52.70
2017-12-24T16:28:03.274Z,52.60
2017-12-24T16:30:34.130Z,51.30
2017-12-24T16:33:05.276Z,49.10
2017-12-24T16:35:37.921Z,49.00
2017-12-24T16:38:09.437Z,48.00
2017-12-24T16:40:40.458Z,47.90
2017-12-24T16:43:11.044Z,48.50
2017-12-24T16:45:41.319Z,49.40
2017-12-24T16:48:12.438Z,50.00
2017-12-24T16:50:43.753Z,50.40
2017-12-24T16:53:13.565Z,50.80
2017-12-24T16:58:31.916Z,48.90
2017-12-24T17:01:04.641Z,47.90
2017-12-24T17:03:35.832Z,47.10
2017-12-24T17:06:07.143Z,47.70
2017-12-24T17:08:41.996Z,48.50
2017-12-24T17:14:09.210Z,49.70
2017-12-24T17:41:34.554Z,49.60
2017-12-24T17:44:08.655Z,49.90
2017-12-24T17:46:42.349Z,50.20
2017-12-24T17:49:13.348Z,49.20
2017-12-24T17:51:46.347Z,49.20
2017-12-24T17:54:16.957Z,48.00
2017-12-24T17:56:55.252Z,47.00
2017-12-24T18:02:12.353Z,47.70
2017-12-24T18:04:49.154Z,48.40
2017-12-24T18:07:22.289Z,49.00
2017-12-24T18:09:56.152Z,49.40
2017-12-24T18:12:27.154Z,49.80
2017-12-24T18:15:02.051Z,50.10
2017-12-24T18:17:34.354Z,50.30
2017-12-24T18:20:07.704Z,49.70
2017-12-24T18:22:44.394Z,48.60
2017-12-24T18:25:21.105Z,47.30
2017-12-24T18:27:55.402Z,46.80
2017-12-24T18:30:26.214Z,47.40
2017-12-24T18:32:59.612Z,48.20
2017-12-24T18:35:31.502Z,48.80
2017-12-24T18:38:02.483Z,49.20
2017-12-24T18:43:22.600Z,49.80
2017-12-24T18:45:53.709Z,50.20
2017-12-24T18:48:27.507Z,50.20
2017-12-24T19:02:05.007Z,48.80
2017-12-24T19:04:50.603Z,48.80
2017-12-24T19:07:24.040Z,49.20
2017-12-24T19:10:04.241Z,49.60
2017-12-24T19:15:22.285Z,50.10
2017-12-24T19:23:28.833Z,46.80
2017-12-24T19:28:43.438Z,47.10
2017-12-24T19:44:56.231Z,51.00
2017-12-24T19:50:05.895Z,49.70
2017-12-24T19:52:36.693Z,48.40
2017-12-24T19:55:08.878Z,47.20
2017-12-24T20:05:45.975Z,49.20
2017-12-24T20:10:56.717Z,49.50
2017-12-24T20:16:10.468Z,50.70
2017-12-24T20:18:44.316Z,50.20
2017-12-24T20:21:14.279Z,49.40
2017-12-24T20:23:45.781Z,48.10
2017-12-24T20:26:17.611Z,46.90
2017-12-24T20:28:53.191Z,46.90
2017-12-24T20:31:28.842Z,47.60
2017-12-24T20:36:52.110Z,48.80
2017-12-24T20:42:12.205Z,49.90
2017-12-24T20:50:14.264Z,49.30
2017-12-24T21:03:59.510Z,49.10
2017-12-24T21:06:38.656Z,48.50
2017-12-24T21:09:20.981Z,48.90
2017-12-24T21:12:01.162Z,49.30
2017-12-24T21:33:49.298Z,48.40
2017-12-24T21:39:11.603Z,48.60
2017-12-24T21:41:44.803Z,49.10
2017-12-24T21:44:17.007Z,49.40
2017-12-24T21:46:52.803Z,49.60
2017-12-24T21:57:34.326Z,49.20
2017-12-24T22:47:06.416Z,48.80
2017-12-24T23:28:28.299Z,49.60
2017-12-24T23:53:05.339Z,48.30
2017-12-24T23:55:37.089Z,48.70
2017-12-24T23:58:08.825Z,49.10
